sensor_id;sensor_type;location;lat;lon;timestamp;pressure;altitude;pressure_sealevel;temperature;humidity
21594;BME280;10959;51.328;7.322;2022-10-17T00:01:47;98953.66;;;18.97;82.39
21594;BME280;10959;51.328;7.322;2022-10-17T00:04:13;98958.13;;;18.98;81.70
21594;BME280;10959;51.328;7.322;2022-10-17T00:06:40;98960.59;;;19.01;81.71
21594;BME280;10959;51.328;7.322;2022-10-17T00:09:07;98962.56;;;18.99;81.63
21594;BME280;10959;51.328;7.322;2022-10-17T00:11:35;98961.59;;;19.00;81.62
21594;BME280;10959;51.328;7.322;2022-10-17T00:14:03;98964.81;;;18.94;81.74
21594;BME280;10959;51.328;7.322;2022-10-17T00:16:32;98961.34;;;18.92;81.98
21594;BME280;10959;51.328;7.322;2022-10-17T00:19:01;98968.66;;;18.91;82.03
21594;BME280;10959;51.328;7.322;2022-10-17T00:21:27;98969.66;;;18.90;81.83
21594;BME280;10959;51.328;7.322;2022-10-17T00:23:54;98966.06;;;18.90;81.81
21594;BME280;10959;51.328;7.322;2022-10-17T00:26:21;98974.50;;;18.87;81.95
21594;BME280;10959;51.328;7.322;2022-10-17T00:28:48;98970.78;;;18.88;81.74
21594;BME280;10959;51.328;7.322;2022-10-17T00:31:16;98974.72;;;18.83;81.56
21594;BME280;10959;51.328;7.322;2022-10-17T00:33:44;98969.28;;;18.83;82.01
21594;BME280;10959;51.328;7.322;2022-10-17T00:36:12;98965.53;;;18.85;81.85
21594;BME280;10959;51.328;7.322;2022-10-17T00:38:39;98963.81;;;18.83;82.08
21594;BME280;10959;51.328;7.322;2022-10-17T00:41:07;98956.34;;;18.86;81.99
21594;BME280;10959;51.328;7.322;2022-10-17T00:43:49;98958.72;;;18.68;81.58
21594;BME280;10959;51.328;7.322;2022-10-17T00:46:17;98952.13;;;18.81;81.76
21594;BME280;10959;51.328;7.322;2022-10-17T00:48:44;98968.63;;;18.80;81.87
21594;BME280;10959;51.328;7.322;2022-10-17T00:51:11;98961.34;;;18.80;81.84
21594;BME280;10959;51.328;7.322;2022-10-17T00:53:38;98962.06;;;18.82;81.87
21594;BME280;10959;51.328;7.322;2022-10-17T00:56:05;98956.63;;;18.82;82.02
21594;BME280;10959;51.328;7.322;2022-10-17T00:58:32;98952.53;;;18.77;82.21
21594;BME280;10959;51.328;7.322;2022-10-17T01:00:58;98960.97;;;18.74;82.24
21594;BME280;10959;51.328;7.322;2022-10-17T01:03:26;98955.38;;;18.75;82.06
21594;BME280;10959;51.328;7.322;2022-10-17T01:05:53;98950.53;;;18.79;82.08
21594;BME280;10959;51.328;7.322;2022-10-17T01:08:20;98951.41;;;18.79;82.23
21594;BME280;10959;51.328;7.322;2022-10-17T01:10:53;98956.09;;;18.66;82.54
21594;BME280;10959;51.328;7.322;2022-10-17T01:13:28;98961.56;;;18.66;82.59
21594;BME280;10959;51.328;7.322;2022-10-17T01:16:00;98958.50;;;18.71;82.62
21594;BME280;10959;51.328;7.322;2022-10-17T01:18:50;98952.91;;;18.61;82.46
21594;BME280;10959;51.328;7.322;2022-10-17T01:21:29;98946.94;;;18.67;82.74
21594;BME280;10959;51.328;7.322;2022-10-17T01:27:09;98942.00;;;18.61;83.14
21594;BME280;10959;51.328;7.322;2022-10-17T01:32:39;98955.88;;;18.80;82.38
21594;BME280;10959;51.328;7.322;2022-10-17T01:35:16;98954.13;;;18.79;82.33
21594;BME280;10959;51.328;7.322;2022-10-17T01:37:47;98954.63;;;18.85;81.97
21594;BME280;10959;51.328;7.322;2022-10-17T01:40:20;98952.91;;;18.83;81.92
21594;BME280;10959;51.328;7.322;2022-10-17T01:42:53;98962.31;;;18.79;81.81
21594;BME280;10959;51.328;7.322;2022-10-17T01:45:26;98954.88;;;18.81;82.06
21594;BME280;10959;51.328;7.322;2022-10-17T01:47:58;98954.00;;;18.81;81.96
21594;BME280;10959;51.328;7.322;2022-10-17T01:50:30;98952.00;;;18.83;82.04
21594;BME280;10959;51.328;7.322;2022-10-17T01:53:01;98952.00;;;18.83;82.05
21594;BME280;10959;51.328;7.322;2022-10-17T01:55:31;98943.22;;;18.79;81.83
21594;BME280;10959;51.328;7.322;2022-10-17T01:58:04;98942.72;;;18.74;82.58
21594;BME280;10959;51.328;7.322;2022-10-17T02:00:33;98936.78;;;18.80;82.54
21594;BME280;10959;51.328;7.322;2022-10-17T02:03:06;98944.22;;;18.78;82.11
21594;BME280;10959;51.328;7.322;2022-10-17T02:05:36;98934.78;;;18.82;82.16
21594;BME280;10959;51.328;7.322;2022-10-17T02:08:04;98935.03;;;18.79;82.52
21594;BME280;10959;51.328;7.322;2022-10-17T02:10:35;98931.56;;;18.77;82.26
21594;BME280;10959;51.328;7.322;2022-10-17T02:13:08;98931.81;;;18.74;81.91
21594;BME280;10959;51.328;7.322;2022-10-17T02:15:59;98930.19;;;18.60;82.61
21594;BME280;10959;51.328;7.322;2022-10-17T02:18:49;98945.44;;;18.63;82.04
21594;BME280;10959;51.328;7.322;2022-10-17T02:21:25;98951.66;;;18.76;82.03
21594;BME280;10959;51.328;7.322;2022-10-17T02:24:03;98939.00;;;18.75;81.82
21594;BME280;10959;51.328;7.322;2022-10-17T02:26:34;98938.25;;;18.85;81.77
21594;BME280;10959;51.328;7.322;2022-10-17T02:29:06;98935.66;;;18.83;81.61
21594;BME280;10959;51.328;7.322;2022-10-17T02:31:39;98942.25;;;18.80;81.13
21594;BME280;10959;51.328;7.322;2022-10-17T02:34:12;98934.78;;;18.82;80.90
21594;BME280;10959;51.328;7.322;2022-10-17T02:36:47;98935.91;;;18.80;81.04
21594;BME280;10959;51.328;7.322;2022-10-17T02:39:15;98930.19;;;18.83;81.21
21594;BME280;10959;51.328;7.322;2022-10-17T02:41:43;98930.19;;;18.83;81.14
21594;BME280;10959;51.328;7.322;2022-10-17T02:44:10;98931.06;;;18.83;80.83
21594;BME280;10959;51.328;7.322;2022-10-17T02:46:37;98924.13;;;18.79;81.33
21594;BME280;10959;51.328;7.322;2022-10-17T02:49:09;98933.31;;;18.78;81.67
21594;BME280;10959;51.328;7.322;2022-10-17T02:51:44;98937.91;;;18.78;81.50
21594;BME280;10959;51.328;7.322;2022-10-17T02:54:16;98939.00;;;18.75;81.68
21594;BME280;10959;51.328;7.322;2022-10-17T02:56:48;98938.03;;;18.76;81.43
21594;BME280;10959;51.328;7.322;2022-10-17T02:59:18;98939.53;;;18.80;81.79
21594;BME280;10959;51.328;7.322;2022-10-17T03:01:46;98939.53;;;18.80;81.70
21594;BME280;10959;51.328;7.322;2022-10-17T03:04:14;98942.25;;;18.80;81.50
21594;BME280;10959;51.328;7.322;2022-10-17T03:06:41;98940.50;;;18.79;81.48
21594;BME280;10959;51.328;7.322;2022-10-17T03:09:08;98944.97;;;18.80;81.57
21594;BME280;10959;51.328;7.322;2022-10-17T03:11:34;98938.75;;;18.78;81.46
21594;BME280;10959;51.328;7.322;2022-10-17T03:14:01;98942.47;;;18.77;81.79
21594;BME280;10959;51.328;7.322;2022-10-17T03:16:27;98943.22;;;18.79;81.42
21594;BME280;10959;51.328;7.322;2022-10-17T03:18:54;98940.50;;;18.79;81.48
21594;BME280;10959;51.328;7.322;2022-10-17T03:21:22;98945.69;;;18.82;81.06
21594;BME280;10959;51.328;7.322;2022-10-17T03:23:48;98944.22;;;18.78;81.37
21594;BME280;10959;51.328;7.322;2022-10-17T03:26:15;98940.50;;;18.79;81.46
21594;BME280;10959;51.328;7.322;2022-10-17T03:28:41;98938.75;;;18.78;81.32
21594;BME280;10959;51.328;7.322;2022-10-17T03:31:09;98947.94;;;18.77;81.65
21594;BME280;10959;51.328;7.322;2022-10-17T03:33:36;98949.66;;;18.78;81.38
21594;BME280;10959;51.328;7.322;2022-10-17T03:36:06;98942.97;;;18.71;81.28
21594;BME280;10959;51.328;7.322;2022-10-17T03:38:34;98946.81;;;18.80;81.39
21594;BME280;10959;51.328;7.322;2022-10-17T03:41:01;98942.00;;;18.83;81.20
21594;BME280;10959;51.328;7.322;2022-10-17T03:43:27;98936.16;;;18.77;81.30
21594;BME280;10959;51.328;7.322;2022-10-17T03:45:55;98944.22;;;18.78;81.00
21594;BME280;10959;51.328;7.322;2022-10-17T03:48:22;98944.97;;;18.80;81.17
21594;BME280;10959;51.328;7.322;2022-10-17T03:50:48;98948.56;;;18.81;81.14
21594;BME280;10959;51.328;7.322;2022-10-17T03:53:15;98951.66;;;18.76;81.41
21594;BME280;10959;51.328;7.322;2022-10-17T03:55:43;98948.56;;;18.81;81.17
21594;BME280;10959;51.328;7.322;2022-10-17T03:58:09;98947.94;;;18.77;81.36
21594;BME280;10959;51.328;7.322;2022-10-17T04:00:35;98953.88;;;18.82;80.95
21594;BME280;10959;51.328;7.322;2022-10-17T04:03:02;98950.31;;;18.82;81.01
21594;BME280;10959;51.328;7.322;2022-10-17T04:05:28;98956.88;;;18.79;81.09
21594;BME280;10959;51.328;7.322;2022-10-17T04:07:55;98954.88;;;18.81;80.94
21594;BME280;10959;51.328;7.322;2022-10-17T04:10:21;98963.94;;;18.71;81.30
21594;BME280;10959;51.328;7.322;2022-10-17T04:12:49;98966.81;;;18.80;81.07
21594;BME280;10959;51.328;7.322;2022-10-17T04:15:16;98966.91;;;18.79;80.90
21594;BME280;10959;51.328;7.322;2022-10-17T04:17:42;98967.53;;;18.71;81.39
21594;BME280;10959;51.328;7.322;2022-10-17T04:20:09;98966.28;;;18.75;80.92
21594;BME280;10959;51.328;7.322;2022-10-17T04:22:35;98973.72;;;18.73;81.43
21594;BME280;10959;51.328;7.322;2022-10-17T04:25:02;98969.03;;;18.75;81.28
21594;BME280;10959;51.328;7.322;2022-10-17T04:27:29;98972.34;;;18.79;81.10
21594;BME280;10959;51.328;7.322;2022-10-17T04:29:56;98965.44;;;18.75;80.89
21594;BME280;10959;51.328;7.322;2022-10-17T04:32:23;98974.97;;;18.80;80.91
21594;BME280;10959;51.328;7.322;2022-10-17T04:34:50;98969.53;;;18.80;80.83
21594;BME280;10959;51.328;7.322;2022-10-17T04:37:16;98963.31;;;18.78;80.95
21594;BME280;10959;51.328;7.322;2022-10-17T04:39:42;98959.09;;;18.74;80.87
21594;BME280;10959;51.328;7.322;2022-10-17T04:42:09;98968.38;;;18.72;81.01
21594;BME280;10959;51.328;7.322;2022-10-17T04:44:35;98971.50;;;18.78;81.02
21594;BME280;10959;51.328;7.322;2022-10-17T04:47:03;98972.00;;;18.72;80.88
21594;BME280;10959;51.328;7.322;2022-10-17T04:49:29;98973.13;;;18.70;81.38
21594;BME280;10959;51.328;7.322;2022-10-17T04:51:56;98971.38;;;18.69;81.37
21594;BME280;10959;51.328;7.322;2022-10-17T04:54:22;98975.22;;;18.77;81.26
21594;BME280;10959;51.328;7.322;2022-10-17T04:56:49;98974.59;;;18.74;81.07
21594;BME280;10959;51.328;7.322;2022-10-17T04:59:15;98968.91;;;18.77;81.06
21594;BME280;10959;51.328;7.322;2022-10-17T05:01:42;98972.72;;;18.74;81.14
21594;BME280;10959;51.328;7.322;2022-10-17T05:04:09;98978.31;;;18.73;81.17
21594;BME280;10959;51.328;7.322;2022-10-17T05:06:36;98971.38;;;18.80;80.70
21594;BME280;10959;51.328;7.322;2022-10-17T05:09:02;98976.69;;;18.81;80.42
21594;BME280;10959;51.328;7.322;2022-10-17T05:11:29;98983.91;;;18.82;80.25
21594;BME280;10959;51.328;7.322;2022-10-17T05:13:57;98981.91;;;18.85;80.35
21594;BME280;10959;51.328;7.322;2022-10-17T05:16:24;98984.44;;;18.88;80.40
21594;BME280;10959;51.328;7.322;2022-10-17T05:18:52;98985.66;;;18.83;80.44
21594;BME280;10959;51.328;7.322;2022-10-17T05:21:22;98982.66;;;18.75;80.40
21594;BME280;10959;51.328;7.322;2022-10-17T05:23:49;98986.88;;;18.79;80.67
21594;BME280;10959;51.328;7.322;2022-10-17T05:26:16;98987.47;;;18.83;80.47
21594;BME280;10959;51.328;7.322;2022-10-17T05:28:43;98990.59;;;18.78;80.38
21594;BME280;10959;51.328;7.322;2022-10-17T05:31:10;98993.31;;;18.78;80.54
21594;BME280;10959;51.328;7.322;2022-10-17T05:33:37;98994.81;;;18.82;80.23
21594;BME280;10959;51.328;7.322;2022-10-17T05:36:04;98992.81;;;18.85;79.95
21594;BME280;10959;51.328;7.322;2022-10-17T05:38:33;98992.81;;;18.85;80.24
21594;BME280;10959;51.328;7.322;2022-10-17T05:41:00;98995.06;;;18.79;80.08
21594;BME280;10959;51.328;7.322;2022-10-17T05:43:27;98986.38;;;18.74;80.35
21594;BME280;10959;51.328;7.322;2022-10-17T05:45:55;99000.00;;;18.74;80.46
21594;BME280;10959;51.328;7.322;2022-10-17T05:48:22;98998.78;;;18.78;80.64
21594;BME280;10959;51.328;7.322;2022-10-17T05:50:56;99005.00;;;18.69;80.20
21594;BME280;10959;51.328;7.322;2022-10-17T05:53:23;99001.00;;;18.73;80.46
21594;BME280;10959;51.328;7.322;2022-10-17T05:55:56;99005.00;;;18.69;79.96
21594;BME280;10959;51.328;7.322;2022-10-17T05:58:22;99013.41;;;18.77;80.53
21594;BME280;10959;51.328;7.322;2022-10-17T06:00:49;99021.38;;;18.80;80.33
21594;BME280;10959;51.328;7.322;2022-10-17T06:03:15;99016.63;;;18.82;79.93
21594;BME280;10959;51.328;7.322;2022-10-17T06:05:42;99018.84;;;18.77;80.41
21594;BME280;10959;51.328;7.322;2022-10-17T06:08:08;99007.47;;;18.61;80.51
21594;BME280;10959;51.328;7.322;2022-10-17T06:10:35;99009.94;;;18.75;80.18
21594;BME280;10959;51.328;7.322;2022-10-17T06:13:02;99016.00;;;18.79;80.21
21594;BME280;10959;51.328;7.322;2022-10-17T06:15:29;99017.63;;;18.81;80.01
21594;BME280;10959;51.328;7.322;2022-10-17T06:17:55;99014.91;;;18.81;79.80
21594;BME280;10959;51.328;7.322;2022-10-17T06:20:22;99012.81;;;18.85;80.06
21594;BME280;10959;51.328;7.322;2022-10-17T06:22:48;99027.31;;;18.86;79.78
21594;BME280;10959;51.328;7.322;2022-10-17T06:25:15;99029.31;;;18.83;79.73
21594;BME280;10959;51.328;7.322;2022-10-17T06:27:41;99036.03;;;18.91;79.79
21594;BME280;10959;51.328;7.322;2022-10-17T06:30:09;99046.44;;;18.97;79.60
21594;BME280;10959;51.328;7.322;2022-10-17T06:32:36;99036.25;;;18.99;79.07
21594;BME280;10959;51.328;7.322;2022-10-17T06:35:03;99051.19;;;19.06;78.86
21594;BME280;10959;51.328;7.322;2022-10-17T06:37:30;99043.19;;;19.14;78.88
21594;BME280;10959;51.328;7.322;2022-10-17T06:39:57;99056.38;;;19.09;78.48
21594;BME280;10959;51.328;7.322;2022-10-17T06:42:23;99058.09;;;19.10;78.57
21594;BME280;10959;51.328;7.322;2022-10-17T06:44:50;99061.84;;;19.09;78.50
21594;BME280;10959;51.328;7.322;2022-10-17T06:47:18;99069.00;;;19.10;78.76
21594;BME280;10959;51.328;7.322;2022-10-17T06:49:44;99070.38;;;19.16;78.58
21594;BME280;10959;51.328;7.322;2022-10-17T06:52:11;99065.03;;;19.14;78.46
21594;BME280;10959;51.328;7.322;2022-10-17T06:54:38;99063.06;;;19.16;78.34
21594;BME280;10959;51.328;7.322;2022-10-17T06:57:05;99051.91;;;19.20;78.09
21594;BME280;10959;51.328;7.322;2022-10-17T06:59:31;99061.72;;;19.22;78.08
21594;BME280;10959;51.328;7.322;2022-10-17T07:01:59;99056.59;;;19.29;77.86
21594;BME280;10959;51.328;7.322;2022-10-17T07:04:27;99064.78;;;19.29;78.04
21594;BME280;10959;51.328;7.322;2022-10-17T07:06:54;99062.94;;;19.29;77.84
21594;BME280;10959;51.328;7.322;2022-10-17T07:09:20;99061.81;;;19.32;77.52
21594;BME280;10959;51.328;7.322;2022-10-17T07:11:48;99071.25;;;19.39;77.45
21594;BME280;10959;51.328;7.322;2022-10-17T07:14:15;99068.53;;;19.39;77.75
21594;BME280;10959;51.328;7.322;2022-10-17T07:16:41;99069.75;;;19.46;77.49
21594;BME280;10959;51.328;7.322;2022-10-17T07:19:08;99068.28;;;19.42;77.05
21594;BME280;10959;51.328;7.322;2022-10-17T07:21:36;99071.97;;;19.41;77.30
21594;BME280;10959;51.328;7.322;2022-10-17T07:24:03;99069.50;;;19.49;77.10
21594;BME280;10959;51.328;7.322;2022-10-17T07:26:31;99076.44;;;19.54;76.61
21594;BME280;10959;51.328;7.322;2022-10-17T07:28:58;99082.38;;;19.59;76.96
21594;BME280;10959;51.328;7.322;2022-10-17T07:31:24;99090.09;;;19.65;76.48
21594;BME280;10959;51.328;7.322;2022-10-17T07:33:51;99090.28;;;19.73;75.97
21594;BME280;10959;51.328;7.322;2022-10-17T07:36:17;99085.31;;;19.78;75.60
21594;BME280;10959;51.328;7.322;2022-10-17T07:38:45;99087.81;;;19.93;75.63
21594;BME280;10959;51.328;7.322;2022-10-17T07:41:12;99095.00;;;19.94;76.26
21594;BME280;10959;51.328;7.322;2022-10-17T07:43:39;99087.44;;;19.86;75.87
21594;BME280;10959;51.328;7.322;2022-10-17T07:46:07;99102.97;;;19.85;75.67
21594;BME280;10959;51.328;7.322;2022-10-17T07:48:36;99096.03;;;19.81;75.36
21594;BME280;10959;51.328;7.322;2022-10-17T07:51:04;99091.41;;;19.82;75.59
21594;BME280;10959;51.328;7.322;2022-10-17T07:53:31;99100.25;;;19.74;75.34
21594;BME280;10959;51.328;7.322;2022-10-17T07:56:03;99103.34;;;19.69;75.36
21594;BME280;10959;51.328;7.322;2022-10-17T07:58:29;99110.44;;;19.83;75.22
21594;BME280;10959;51.328;7.322;2022-10-17T08:00:59;99108.72;;;19.82;75.07
21594;BME280;10959;51.328;7.322;2022-10-17T08:03:26;99111.16;;;19.97;75.19
21594;BME280;10959;51.328;7.322;2022-10-17T08:05:56;99115.97;;;20.05;74.43
21594;BME280;10959;51.328;7.322;2022-10-17T08:08:23;99126.28;;;20.12;74.83
21594;BME280;10959;51.328;7.322;2022-10-17T08:10:49;99116.56;;;20.19;74.55
21594;BME280;10959;51.328;7.322;2022-10-17T08:13:17;99113.78;;;20.31;74.05
21594;BME280;10959;51.328;7.322;2022-10-17T08:15:44;99110.56;;;20.26;73.18
21594;BME280;10959;51.328;7.322;2022-10-17T08:18:12;99104.50;;;20.43;73.68
21594;BME280;10959;51.328;7.322;2022-10-17T08:20:38;99095.50;;;20.52;73.08
21594;BME280;10959;51.328;7.322;2022-10-17T08:23:05;99094.91;;;20.49;73.32
21594;BME280;10959;51.328;7.322;2022-10-17T08:25:32;99106.47;;;20.52;73.02
21594;BME280;10959;51.328;7.322;2022-10-17T08:27:59;99108.00;;;20.66;72.14
21594;BME280;10959;51.328;7.322;2022-10-17T08:30:27;99124.78;;;20.73;72.08
21594;BME280;10959;51.328;7.322;2022-10-17T08:32:54;99121.25;;;20.82;72.37
21594;BME280;10959;51.328;7.322;2022-10-17T08:35:21;99117.41;;;20.95;71.95
21594;BME280;10959;51.328;7.322;2022-10-17T08:37:48;99120.81;;;21.08;71.96
21594;BME280;10959;51.328;7.322;2022-10-17T08:40:18;99121.53;;;21.10;71.35
21594;BME280;10959;51.328;7.322;2022-10-17T08:43:22;99126.94;;;20.91;71.32
21594;BME280;10959;51.328;7.322;2022-10-17T08:45:56;99128.22;;;21.17;71.41
21594;BME280;10959;51.328;7.322;2022-10-17T08:48:29;99129.50;;;21.44;70.79
21594;BME280;10959;51.328;7.322;2022-10-17T08:51:01;99129.72;;;21.52;69.77
21594;BME280;10959;51.328;7.322;2022-10-17T08:53:32;99139.13;;;21.60;70.19
21594;BME280;10959;51.328;7.322;2022-10-17T08:56:03;99127.59;;;21.66;70.12
21594;BME280;10959;51.328;7.322;2022-10-17T08:58:32;99133.25;;;21.74;69.86
21594;BME280;10959;51.328;7.322;2022-10-17T09:01:05;99133.69;;;21.69;69.02
21594;BME280;10959;51.328;7.322;2022-10-17T09:03:43;99134.53;;;21.70;68.60
21594;BME280;10959;51.328;7.322;2022-10-17T09:06:17;99136.00;;;21.74;68.82
21594;BME280;10959;51.328;7.322;2022-10-17T09:08:54;99129.06;;;21.70;68.96
21594;BME280;10959;51.328;7.322;2022-10-17T09:11:42;99138.56;;;21.66;68.59
21594;BME280;10959;51.328;7.322;2022-10-17T09:14:25;99132.97;;;21.46;69.65
21594;BME280;10959;51.328;7.322;2022-10-17T09:17:09;99141.53;;;21.32;69.75
21594;BME280;10959;51.328;7.322;2022-10-17T09:19:41;99141.47;;;21.74;69.58
21594;BME280;10959;51.328;7.322;2022-10-17T09:22:11;99142.38;;;21.84;69.07
21594;BME280;10959;51.328;7.322;2022-10-17T09:24:42;99153.69;;;22.01;68.94
21594;BME280;10959;51.328;7.322;2022-10-17T09:27:19;99158.59;;;22.07;69.09
21594;BME280;10959;51.328;7.322;2022-10-17T09:29:49;99157.09;;;22.34;68.79
21594;BME280;10959;51.328;7.322;2022-10-17T09:32:23;99157.09;;;22.34;67.86
21594;BME280;10959;51.328;7.322;2022-10-17T09:34:50;99167.91;;;22.35;67.81
21594;BME280;10959;51.328;7.322;2022-10-17T09:37:18;99161.84;;;22.41;67.64
21594;BME280;10959;51.328;7.322;2022-10-17T09:39:47;99160.25;;;22.58;67.70
21594;BME280;10959;51.328;7.322;2022-10-17T09:42:15;99171.69;;;22.64;67.68
21594;BME280;10959;51.328;7.322;2022-10-17T09:44:48;99185.41;;;22.44;66.56
21594;BME280;10959;51.328;7.322;2022-10-17T09:47:26;99188.44;;;22.41;67.78
21594;BME280;10959;51.328;7.322;2022-10-17T09:49:54;99181.78;;;22.53;67.73
21594;BME280;10959;51.328;7.322;2022-10-17T09:52:25;99180.34;;;22.49;67.42
21594;BME280;10959;51.328;7.322;2022-10-17T09:54:55;99195.38;;;22.45;67.17
21594;BME280;10959;51.328;7.322;2022-10-17T09:57:23;99197.69;;;22.59;67.79
21594;BME280;10959;51.328;7.322;2022-10-17T09:59:56;99199.56;;;22.49;67.51
21594;BME280;10959;51.328;7.322;2022-10-17T10:02:26;99203.19;;;22.59;67.71
21594;BME280;10959;51.328;7.322;2022-10-17T10:04:56;99205.78;;;22.61;68.16
21594;BME280;10959;51.328;7.322;2022-10-17T10:07:23;99200.59;;;22.58;67.76
21594;BME280;10959;51.328;7.322;2022-10-17T10:09:50;99206.75;;;22.50;67.93
21594;BME280;10959;51.328;7.322;2022-10-17T10:12:19;99202.44;;;22.38;67.92
21594;BME280;10959;51.328;7.322;2022-10-17T10:14:46;99210.94;;;22.44;68.34
21594;BME280;10959;51.328;7.322;2022-10-17T10:17:32;99211.47;;;22.29;68.79
21594;BME280;10959;51.328;7.322;2022-10-17T10:19:59;99221.06;;;22.44;68.13
21594;BME280;10959;51.328;7.322;2022-10-17T10:22:27;99219.34;;;22.53;68.20
21594;BME280;10959;51.328;7.322;2022-10-17T10:25:06;99221.91;;;22.35;68.58
21594;BME280;10959;51.328;7.322;2022-10-17T10:27:34;99227.56;;;22.53;68.68
21594;BME280;10959;51.328;7.322;2022-10-17T10:30:02;99233.50;;;22.48;68.52
21594;BME280;10959;51.328;7.322;2022-10-17T10:32:31;99239.28;;;22.45;67.81
21594;BME280;10959;51.328;7.322;2022-10-17T10:35:02;99232.03;;;22.44;68.14
21594;BME280;10959;51.328;7.322;2022-10-17T10:37:36;99238.69;;;22.41;68.41
21594;BME280;10959;51.328;7.322;2022-10-17T10:40:05;99234.94;;;22.52;67.73
21594;BME280;10959;51.328;7.322;2022-10-17T10:42:35;99243.06;;;22.64;68.09
21594;BME280;10959;51.328;7.322;2022-10-17T10:45:14;99247.66;;;22.53;68.36
21594;BME280;10959;51.328;7.322;2022-10-17T10:47:50;99246.34;;;22.57;68.12
21594;BME280;10959;51.328;7.322;2022-10-17T10:50:25;99252.72;;;22.68;68.02
21594;BME280;10959;51.328;7.322;2022-10-17T10:53:04;99255.47;;;22.68;67.60
21594;BME280;10959;51.328;7.322;2022-10-17T10:55:35;99265.00;;;22.73;67.76
21594;BME280;10959;51.328;7.322;2022-10-17T10:58:19;99262.69;;;22.59;67.69
21594;BME280;10959;51.328;7.322;2022-10-17T11:00:48;99257.22;;;22.69;67.56
21594;BME280;10959;51.328;7.322;2022-10-17T11:03:20;99264.44;;;22.70;67.71
21594;BME280;10959;51.328;7.322;2022-10-17T11:05:50;99265.31;;;22.80;67.74
21594;BME280;10959;51.328;7.322;2022-10-17T11:08:23;99271.69;;;22.71;67.28
21594;BME280;10959;51.328;7.322;2022-10-17T11:10:59;99285.81;;;22.76;67.86
21594;BME280;10959;51.328;7.322;2022-10-17T11:13:31;99289.59;;;22.94;67.96
21594;BME280;10959;51.328;7.322;2022-10-17T11:16:11;99287.47;;;23.08;67.87
21594;BME280;10959;51.328;7.322;2022-10-17T11:18:46;99293.09;;;23.06;67.99
21594;BME280;10959;51.328;7.322;2022-10-17T11:21:18;99303.50;;;23.03;67.84
21594;BME280;10959;51.328;7.322;2022-10-17T11:23:47;99306.44;;;23.11;67.96
21594;BME280;10959;51.328;7.322;2022-10-17T11:26:18;99310.88;;;23.02;68.12
21594;BME280;10959;51.328;7.322;2022-10-17T11:28:51;99301.75;;;23.02;67.71
21594;BME280;10959;51.328;7.322;2022-10-17T11:31:19;99299.75;;;23.04;67.23
21594;BME280;10959;51.328;7.322;2022-10-17T11:33:53;99297.53;;;22.98;67.75
21594;BME280;10959;51.328;7.322;2022-10-17T11:36:25;99313.31;;;22.95;67.67
21594;BME280;10959;51.328;7.322;2022-10-17T11:38:55;99309.28;;;23.00;67.82
21594;BME280;10959;51.328;7.322;2022-10-17T11:41:28;99310.69;;;22.84;67.46
21594;BME280;10959;51.328;7.322;2022-10-17T11:43:59;99300.03;;;22.91;68.02
21594;BME280;10959;51.328;7.322;2022-10-17T11:46:29;99295.38;;;22.91;67.50
21594;BME280;10959;51.328;7.322;2022-10-17T11:49:06;99295.34;;;22.72;67.90
21594;BME280;10959;51.328;7.322;2022-10-17T11:51:42;99287.56;;;22.77;67.51
21594;BME280;10959;51.328;7.322;2022-10-17T11:54:13;99294.81;;;22.78;67.52
21594;BME280;10959;51.328;7.322;2022-10-17T11:56:45;99280.03;;;22.79;67.28
21594;BME280;10959;51.328;7.322;2022-10-17T11:59:32;99285.94;;;22.65;67.98
21594;BME280;10959;51.328;7.322;2022-10-17T12:02:08;99291.59;;;22.73;67.47
21594;BME280;10959;51.328;7.322;2022-10-17T12:04:47;99292.47;;;22.64;67.78
21594;BME280;10959;51.328;7.322;2022-10-17T12:07:22;99290.47;;;22.75;67.60
21594;BME280;10959;51.328;7.322;2022-10-17T12:09:56;99292.78;;;22.80;67.75
21594;BME280;10959;51.328;7.322;2022-10-17T12:12:26;99300.88;;;22.91;67.18
21594;BME280;10959;51.328;7.322;2022-10-17T12:14:54;99302.91;;;22.89;67.66
21594;BME280;10959;51.328;7.322;2022-10-17T12:17:41;99297.25;;;22.81;68.10
21594;BME280;10959;51.328;7.322;2022-10-17T12:20:28;99301.13;;;22.49;68.36
21594;BME280;10959;51.328;7.322;2022-10-17T12:22:59;99302.00;;;22.79;68.39
21594;BME280;10959;51.328;7.322;2022-10-17T12:25:28;99298.56;;;22.77;67.91
21594;BME280;10959;51.328;7.322;2022-10-17T12:28:25;99297.78;;;22.55;68.75
21594;BME280;10959;51.328;7.322;2022-10-17T12:30:57;99305.78;;;22.78;68.44
21594;BME280;10959;51.328;7.322;2022-10-17T12:33:30;99311.28;;;22.78;68.27
21594;BME280;10959;51.328;7.322;2022-10-17T12:39:46;99315.25;;;22.54;69.35
21594;BME280;10959;51.328;7.322;2022-10-17T12:42:29;99323.38;;;22.66;69.07
21594;BME280;10959;51.328;7.322;2022-10-17T12:44:56;99321.69;;;22.84;69.34
21594;BME280;10959;51.328;7.322;2022-10-17T12:47:38;99320.06;;;22.72;69.46
21594;BME280;10959;51.328;7.322;2022-10-17T12:53:05;99313.00;;;22.89;69.40
21594;BME280;10959;51.328;7.322;2022-10-17T12:55:34;99306.38;;;22.91;69.13
21594;BME280;10959;51.328;7.322;2022-10-17T12:58:02;99300.88;;;22.91;69.34
21594;BME280;10959;51.328;7.322;2022-10-17T13:00:33;99315.34;;;22.93;69.24
21594;BME280;10959;51.328;7.322;2022-10-17T13:03:08;99319.38;;;22.89;69.46
21594;BME280;10959;51.328;7.322;2022-10-17T13:05:39;99319.66;;;22.96;69.64
21594;BME280;10959;51.328;7.322;2022-10-17T13:08:14;99322.81;;;22.72;69.13
21594;BME280;10959;51.328;7.322;2022-10-17T13:10:45;99319.66;;;22.86;69.39
21594;BME280;10959;51.328;7.322;2022-10-17T13:13:15;99331.84;;;22.93;69.53
21594;BME280;10959;51.328;7.322;2022-10-17T13:15:45;99336.88;;;22.98;69.49
21594;BME280;10959;51.328;7.322;2022-10-17T13:18:17;99337.00;;;22.87;69.18
21594;BME280;10959;51.328;7.322;2022-10-17T13:20:54;99347.69;;;22.80;69.43
21594;BME280;10959;51.328;7.322;2022-10-17T13:23:21;99346.56;;;22.92;69.45
21594;BME280;10959;51.328;7.322;2022-10-17T13:26:01;99345.94;;;22.69;69.84
21594;BME280;10959;51.328;7.322;2022-10-17T13:28:28;99351.19;;;22.82;69.45